Time;durP1;ratioP1;P1;durP2;ratioP2;P2;SDS_P1;SDS_P2;PMS_P1;PMS_P2;Temp;Humidity;BMP_temperature;BMP_pressure;BME280_temperature;BME280_humidity;BME280_pressure;Samples;Min_cycle;Max_cycle;Signal;HPM_P1;HPM_P2
2021/12/24 00:01:08;;;;;;;36.45;25.15;;;7.40;85.90;;;;;;5000157;28;20096;-80
2021/12/24 00:03:36;;;;;;;37.28;23.65;;;7.40;85.90;;;;;;5009947;28;20103;-80
2021/12/24 00:06:05;;;;;;;38.95;24.40;;;7.40;85.90;;;;;;5013032;28;20513;-80
2021/12/24 00:08:36;;;;;;;34.67;23.52;;;7.40;85.90;;;;;;5029537;28;20516;-81
2021/12/24 00:11:04;;;;;;;39.67;25.25;;;7.40;85.90;;;;;;5027348;28;20454;-80
2021/12/24 00:13:36;;;;;;;41.83;24.58;;;7.40;85.90;;;;;;5027645;28;20049;-80
2021/12/24 00:16:09;;;;;;;42.80;25.52;;;7.40;85.90;;;;;;5031821;28;20049;-80
2021/12/24 00:18:53;;;;;;;37.50;24.92;;;7.40;85.90;;;;;;5035147;28;20048;-80
2021/12/24 00:22:11;;;;;;;43.55;25.70;;;7.30;85.90;;;;;;5035220;28;20049;-80
2021/12/24 00:35:22;;;;;;;35.97;23.13;;;7.30;85.90;;;;;;5034663;28;20057;-80
2021/12/24 00:37:49;;;;;;;35.40;25.73;;;7.30;85.90;;;;;;5034816;28;20041;-80
2021/12/24 00:40:18;;;;;;;34.80;23.95;;;7.30;85.90;;;;;;5034219;28;20056;-80
2021/12/24 00:42:54;;;;;;;29.65;19.80;;;7.30;85.90;;;;;;5034737;28;20041;-80
2021/12/24 00:45:27;;;;;;;29.80;20.58;;;7.20;85.90;;;;;;5034703;28;20508;-81
2021/12/24 00:47:58;;;;;;;36.45;23.23;;;7.20;85.80;;;;;;5029770;28;20053;-80
2021/12/24 00:50:28;;;;;;;42.75;23.98;;;7.20;85.80;;;;;;5034000;28;20046;-81
2021/12/24 00:53:01;;;;;;;32.20;21.48;;;7.20;85.70;;;;;;5034079;28;20041;-80
2021/12/24 00:55:30;;;;;;;41.05;22.55;;;7.20;85.70;;;;;;5034374;28;20041;-80
2021/12/24 00:58:00;;;;;;;31.23;21.33;;;7.20;85.70;;;;;;5034442;28;20038;-80
2021/12/24 01:00:30;;;;;;;29.85;20.58;;;7.20;85.60;;;;;;5018851;28;20051;-80
2021/12/24 01:03:01;;;;;;;37.63;22.17;;;7.20;85.60;;;;;;5033265;28;20187;-80
2021/12/24 01:05:30;;;;;;;33.35;21.75;;;7.20;85.60;;;;;;5034244;28;20041;-80
2021/12/24 01:07:57;;;;;;;33.03;20.60;;;7.10;85.50;;;;;;5033615;28;20421;-80
2021/12/24 01:10:32;;;;;;;30.30;20.73;;;7.10;85.50;;;;;;5034010;28;20045;-80
2021/12/24 01:13:01;;;;;;;34.03;20.60;;;7.10;85.50;;;;;;5034105;28;20038;-80
2021/12/24 01:15:30;;;;;;;30.38;20.65;;;7.10;85.50;;;;;;5018595;28;20394;-80
2021/12/24 01:23:29;;;;;;;27.52;18.77;;;7.00;85.40;;;;;;5033599;28;20048;-80
2021/12/24 01:25:44;;;;;;;34.72;20.67;;;7.10;85.40;;;;;;5033308;28;20051;-80
2021/12/24 01:39:24;;;;;;;26.58;19.58;;;7.00;85.40;;;;;;5033567;28;20063;-80
2021/12/24 01:44:37;;;;;;;25.92;19.30;;;7.00;85.50;;;;;;5030618;28;20049;-80
2021/12/24 01:47:08;;;;;;;37.00;20.98;;;7.00;85.50;;;;;;5033251;28;20047;-81
2021/12/24 01:49:35;;;;;;;31.23;20.00;;;7.00;85.50;;;;;;5033366;28;20042;-80
2021/12/24 01:52:03;;;;;;;31.42;20.65;;;7.00;85.50;;;;;;5033241;28;20049;-81
2021/12/24 01:54:31;;;;;;;29.63;19.08;;;7.00;85.50;;;;;;5033421;28;20053;-81
2021/12/24 01:56:58;;;;;;;38.83;20.40;;;7.10;85.60;;;;;;5032564;28;20060;-81
2021/12/24 01:59:25;;;;;;;36.28;19.13;;;7.00;85.60;;;;;;5032845;28;20057;-80
2021/12/24 02:01:52;;;;;;;31.55;19.85;;;7.10;85.60;;;;;;5033137;28;20052;-81
2021/12/24 02:04:20;;;;;;;29.45;19.77;;;7.10;85.60;;;;;;5032999;28;20588;-80
2021/12/24 02:06:48;;;;;;;34.40;19.42;;;7.10;85.70;;;;;;5032975;28;20057;-80
2021/12/24 02:09:15;;;;;;;37.33;20.33;;;7.10;85.70;;;;;;5033162;28;20063;-80
2021/12/24 02:11:43;;;;;;;28.20;19.45;;;7.10;85.70;;;;;;5032434;28;20060;-80
2021/12/24 02:14:20;;;;;;;34.53;19.75;;;7.20;85.70;;;;;;5032996;28;20501;-80
2021/12/24 02:30:44;;;;;;;30.20;18.98;;;7.30;85.70;;;;;;5019960;28;20061;-80
2021/12/24 02:33:12;;;;;;;32.50;18.27;;;7.30;85.70;;;;;;5033066;28;20063;-80
2021/12/24 02:35:39;;;;;;;25.65;18.25;;;7.30;85.70;;;;;;5031742;28;20060;-80
2021/12/24 02:38:06;;;;;;;30.83;18.38;;;7.30;85.70;;;;;;5034804;28;20068;-80
2021/12/24 02:40:35;;;;;;;24.77;16.95;;;7.30;85.70;;;;;;5036893;28;20061;-80
2021/12/24 02:43:03;;;;;;;25.90;16.90;;;7.30;85.60;;;;;;5036905;28;20048;-81
2021/12/24 02:45:33;;;;;;;24.10;16.52;;;7.30;85.60;;;;;;5036869;28;22427;-80
2021/12/24 02:56:08;;;;;;;23.88;16.20;;;7.40;85.40;;;;;;5036579;28;20395;-81
2021/12/24 02:58:46;;;;;;;22.92;15.75;;;7.30;85.40;;;;;;5036546;28;20067;-80
2021/12/24 03:01:18;;;;;;;24.75;16.75;;;7.40;85.40;;;;;;5036489;28;20048;-80
2021/12/24 03:03:48;;;;;;;22.23;15.73;;;7.40;85.30;;;;;;5035913;28;20053;-80
2021/12/24 03:06:20;;;;;;;24.92;16.60;;;7.40;85.20;;;;;;5036532;28;20088;-80
2021/12/24 03:08:47;;;;;;;21.70;15.25;;;7.40;85.10;;;;;;5035550;28;20106;-80
2021/12/24 03:11:14;;;;;;;21.40;15.05;;;7.40;85.10;;;;;;5036354;28;20052;-80
2021/12/24 03:13:42;;;;;;;21.95;15.73;;;7.40;85.00;;;;;;5036133;28;20067;-80
2021/12/24 03:16:09;;;;;;;21.73;15.50;;;7.40;85.00;;;;;;5036222;28;20497;-80
2021/12/24 03:18:39;;;;;;;22.65;15.52;;;7.40;84.90;;;;;;5035905;28;20350;-80
2021/12/24 03:23:44;;;;;;;19.73;15.35;;;7.40;84.80;;;;;;5033944;28;20045;-80
2021/12/24 03:26:14;;;;;;;27.02;15.98;;;7.30;84.70;;;;;;5036024;28;20045;-80
2021/12/24 03:28:43;;;;;;;20.52;15.55;;;7.40;84.70;;;;;;5036051;28;20048;-81
2021/12/24 03:31:10;;;;;;;22.15;16.15;;;7.30;84.60;;;;;;5035916;28;20045;-80
2021/12/24 03:33:37;;;;;;;22.80;16.63;;;7.30;84.50;;;;;;5035660;28;20037;-80
2021/12/24 03:36:06;;;;;;;25.80;16.50;;;7.20;84.50;;;;;;5035228;28;20054;-80
2021/12/24 03:38:34;;;;;;;23.33;16.83;;;7.20;84.40;;;;;;5035228;28;20050;-81
2021/12/24 03:41:01;;;;;;;19.65;15.55;;;7.20;84.40;;;;;;5035777;28;20053;-80
2021/12/24 03:43:28;;;;;;;25.13;17.20;;;7.20;84.40;;;;;;5035563;28;20056;-80
2021/12/24 03:46:00;;;;;;;26.20;17.77;;;7.20;84.40;;;;;;5035812;28;20060;-80
2021/12/24 03:48:49;;;;;;;27.05;17.35;;;7.10;84.30;;;;;;5019627;28;20513;-80
2021/12/24 03:56:49;;;;;;;26.30;17.70;;;7.00;84.30;;;;;;5012786;28;20056;-80
2021/12/24 03:59:16;;;;;;;27.50;18.30;;;7.00;84.40;;;;;;5013389;28;20050;-80
2021/12/24 04:01:43;;;;;;;25.33;17.48;;;6.90;84.40;;;;;;5013084;28;20038;-80
2021/12/24 04:04:10;;;;;;;24.50;16.70;;;6.90;84.40;;;;;;5013175;28;20084;-81
2021/12/24 04:06:38;;;;;;;30.25;18.30;;;6.90;84.40;;;;;;5013448;28;20049;-81
2021/12/24 04:09:07;;;;;;;24.23;17.35;;;6.90;84.40;;;;;;5012668;28;20054;-81
2021/12/24 04:11:37;;;;;;;28.65;18.55;;;6.80;84.50;;;;;;5012689;28;20049;-80
2021/12/24 04:14:04;;;;;;;26.60;17.98;;;6.80;84.40;;;;;;5013088;28;20046;-81
2021/12/24 04:16:33;;;;;;;28.85;18.70;;;6.70;84.40;;;;;;5012884;28;20133;-81
2021/12/24 04:19:35;;;;;;;30.33;19.42;;;6.70;84.50;;;;;;5013101;28;20038;-80
2021/12/24 04:24:53;;;;;;;28.27;18.55;;;6.70;84.50;;;;;;5013046;28;20038;-80
2021/12/24 04:27:23;;;;;;;26.85;17.45;;;6.60;84.50;;;;;;5021390;28;20037;-81
2021/12/24 04:29:58;;;;;;;27.63;18.55;;;6.60;84.50;;;;;;5034090;28;20049;-80
2021/12/24 04:32:34;;;;;;;31.17;18.75;;;6.60;84.60;;;;;;5034177;28;20050;-81
2021/12/24 04:35:17;;;;;;;27.77;19.00;;;6.50;84.60;;;;;;5034649;28;20060;-81
2021/12/24 04:51:25;;;;;;;35.88;20.63;;;6.40;84.90;;;;;;5051875;28;20049;-82
2021/12/24 05:02:39;;;;;;;34.63;20.40;;;6.40;85.30;;;;;;5047570;28;20053;-81
2021/12/24 05:05:18;;;;;;;29.65;20.88;;;6.40;85.30;;;;;;5047302;28;20064;-81
2021/12/24 05:10:14;;;;;;;34.10;21.13;;;6.50;85.50;;;;;;5047314;28;20045;-81
2021/12/24 05:12:41;;;;;;;40.55;20.70;;;6.50;85.50;;;;;;5049982;28;20067;-81
2021/12/24 05:15:10;;;;;;;40.55;22.35;;;6.50;85.60;;;;;;5048875;28;20075;-81
2021/12/24 05:23:00;;;;;;;34.95;21.40;;;6.50;85.70;;;;;;5033747;28;20045;-80
2021/12/24 05:25:27;;;;;;;36.85;21.70;;;6.50;85.70;;;;;;5032645;28;20083;-80
2021/12/24 05:27:57;;;;;;;35.65;21.30;;;6.60;85.80;;;;;;5033840;28;20051;-81
2021/12/24 05:30:25;;;;;;;33.83;20.83;;;6.60;85.80;;;;;;5016588;28;20051;-80
2021/12/24 05:32:52;;;;;;;35.70;20.75;;;6.60;85.80;;;;;;5033012;28;20414;-80
2021/12/24 05:35:19;;;;;;;30.48;18.50;;;6.60;85.80;;;;;;5033509;28;20520;-81
2021/12/24 05:37:46;;;;;;;33.42;21.58;;;6.60;85.80;;;;;;5033563;28;20046;-80
2021/12/24 05:40:13;;;;;;;31.58;19.23;;;6.60;85.80;;;;;;5033442;28;20049;-80
2021/12/24 05:42:40;;;;;;;31.33;18.98;;;6.60;85.80;;;;;;5033647;28;20417;-81
2021/12/24 05:45:10;;;;;;;37.83;20.67;;;6.60;85.80;;;;;;5032732;28;20387;-81
2021/12/24 05:47:37;;;;;;;30.45;20.10;;;6.60;85.80;;;;;;5030666;28;20111;-81
2021/12/24 05:50:05;;;;;;;31.40;18.70;;;6.60;85.70;;;;;;5065120;28;20402;-80
2021/12/24 05:52:34;;;;;;;25.95;18.42;;;6.60;85.70;;;;;;5033253;28;20049;-81
2021/12/24 05:55:02;;;;;;;29.63;18.35;;;6.60;85.70;;;;;;5033189;28;20045;-80
2021/12/24 05:57:29;;;;;;;28.27;18.83;;;6.60;85.70;;;;;;5033083;28;20045;-81
2021/12/24 05:59:56;;;;;;;30.20;19.65;;;6.60;85.70;;;;;;5032444;28;20049;-81
2021/12/24 06:02:23;;;;;;;28.13;18.20;;;6.60;85.70;;;;;;5034653;28;20060;-81
2021/12/24 06:04:50;;;;;;;31.95;17.55;;;6.60;85.60;;;;;;5033019;28;20041;-80
2021/12/24 06:07:17;;;;;;;29.92;18.88;;;6.50;85.60;;;;;;5033208;28;20054;-80
2021/12/24 06:09:44;;;;;;;28.48;18.23;;;6.50;85.60;;;;;;5033247;28;20045;-80
2021/12/24 06:12:11;;;;;;;28.85;17.80;;;6.50;85.60;;;;;;5032592;28;20432;-81
2021/12/24 06:14:40;;;;;;;30.98;17.77;;;6.50;85.60;;;;;;5032274;28;20505;-81
2021/12/24 06:17:14;;;;;;;30.17;17.65;;;6.50;85.60;;;;;;5033081;28;20045;-80
2021/12/24 06:19:41;;;;;;;;;;;6.50;85.60;;;;;;5033271;28;20045;-80
2021/12/24 06:22:10;;;;;;;32.03;18.45;;;6.40;85.50;;;;;;5032966;28;19928;-80
2021/12/24 06:24:37;;;;;;;34.35;19.92;;;6.40;85.60;;;;;;5033135;28;20048;-81
2021/12/24 06:27:05;;;;;;;24.75;17.27;;;6.40;85.50;;;;;;5031868;28;20050;-81
2021/12/24 06:29:32;;;;;;;24.20;17.00;;;6.40;85.60;;;;;;5032825;28;20053;-80
2021/12/24 06:31:59;;;;;;;24.13;17.08;;;6.40;85.60;;;;;;5032930;28;20045;-82
2021/12/24 06:34:30;;;;;;;24.70;18.25;;;6.40;85.60;;;;;;5032876;28;20092;-80
2021/12/24 06:36:59;;;;;;;26.60;18.13;;;6.40;85.60;;;;;;5032889;28;20403;-81
2021/12/24 06:39:26;;;;;;;35.47;17.83;;;6.40;85.70;;;;;;5017278;28;20041;-80
2021/12/24 06:41:54;;;;;;;37.25;19.45;;;6.40;85.70;;;;;;5027585;28;20059;-80
2021/12/24 06:44:22;;;;;;;34.75;18.48;;;6.40;85.70;;;;;;5032867;28;20045;-80
2021/12/24 06:46:49;;;;;;;29.67;18.08;;;6.40;85.80;;;;;;5032735;28;20482;-80
2021/12/24 06:49:16;;;;;;;37.80;19.25;;;6.40;85.80;;;;;;5032785;28;20593;-80
2021/12/24 06:51:44;;;;;;;39.08;19.45;;;6.40;85.90;;;;;;5032950;28;20045;-80
2021/12/24 06:54:11;;;;;;;38.28;21.30;;;6.40;85.90;;;;;;5033278;28;20049;-80
2021/12/24 06:56:43;;;;;;;37.20;18.90;;;6.40;86.00;;;;;;5030317;28;20417;-81
2021/12/24 06:59:10;;;;;;;30.23;19.58;;;6.40;86.10;;;;;;5032469;28;20041;-80
2021/12/24 07:01:37;;;;;;;33.75;19.40;;;6.50;86.10;;;;;;5032756;28;20045;-80
2021/12/24 07:04:04;;;;;;;36.53;18.83;;;6.50;86.10;;;;;;5032485;28;20050;-80
2021/12/24 07:06:32;;;;;;;34.78;18.88;;;6.50;86.10;;;;;;5032813;28;20064;-80
2021/12/24 07:08:59;;;;;;;35.50;19.75;;;6.50;86.20;;;;;;5031876;28;20045;-80
2021/12/24 07:11:26;;;;;;;32.60;18.92;;;6.50;86.20;;;;;;5032086;28;20052;-80
2021/12/24 07:13:53;;;;;;;30.85;20.88;;;6.50;86.20;;;;;;5032483;28;20041;-80
2021/12/24 07:16:20;;;;;;;33.45;19.95;;;6.60;86.30;;;;;;5032519;28;20045;-80
2021/12/24 07:18:47;;;;;;;33.67;20.73;;;6.60;86.30;;;;;;5032517;28;20050;-80
2021/12/24 07:21:14;;;;;;;33.30;20.90;;;6.60;86.30;;;;;;5032626;28;20053;-81
2021/12/24 07:23:41;;;;;;;40.55;25.08;;;6.60;86.30;;;;;;5031791;28;20045;-81
2021/12/24 07:26:08;;;;;;;38.90;22.83;;;6.70;86.30;;;;;;5032325;28;20041;-80
2021/12/24 07:28:36;;;;;;;36.38;21.63;;;6.70;86.30;;;;;;5035215;28;20049;-80
2021/12/24 07:31:03;;;;;;;32.55;22.38;;;6.70;86.40;;;;;;5034634;28;20064;-80
2021/12/24 07:33:30;;;;;;;40.85;24.08;;;6.70;86.30;;;;;;5035903;28;20048;-80
2021/12/24 07:35:57;;;;;;;35.88;21.92;;;6.70;86.40;;;;;;5034608;28;20426;-80
2021/12/24 07:38:24;;;;;;;27.38;17.80;;;6.70;86.40;;;;;;5035100;28;20046;-80
2021/12/24 07:40:51;;;;;;;29.42;19.85;;;6.70;86.30;;;;;;5035093;28;20419;-81
2021/12/24 07:43:18;;;;;;;28.25;18.55;;;6.80;86.30;;;;;;5035222;28;20049;-80
2021/12/24 07:45:46;;;;;;;34.42;22.60;;;6.70;86.30;;;;;;5035539;28;20053;-80
2021/12/24 07:48:15;;;;;;;30.98;19.75;;;6.70;86.30;;;;;;5035456;28;20530;-80
2021/12/24 07:53:14;;;;;;;32.03;21.23;;;6.80;86.30;;;;;;5035164;28;20415;-80
2021/12/24 07:55:43;;;;;;;26.42;17.92;;;6.80;86.20;;;;;;5035025;28;20042;-80
2021/12/24 07:58:10;;;;;;;30.20;20.00;;;6.80;86.20;;;;;;5035554;28;20049;-80
2021/12/24 08:00:39;;;;;;;27.67;18.20;;;6.80;86.20;;;;;;5035110;28;20041;-80
2021/12/24 08:03:07;;;;;;;23.77;19.00;;;6.80;86.20;;;;;;5034514;28;20057;-80
2021/12/24 08:05:39;;;;;;;24.35;17.73;;;6.80;86.20;;;;;;5034674;28;20414;-80
2021/12/24 08:08:08;;;;;;;25.30;18.42;;;6.80;86.10;;;;;;5034389;28;20509;-80
2021/12/24 08:10:37;;;;;;;32.45;21.38;;;6.80;86.10;;;;;;5035000;28;20075;-80
2021/12/24 08:13:05;;;;;;;27.98;20.30;;;6.80;86.10;;;;;;5035092;28;20493;-80
2021/12/24 08:15:32;;;;;;;45.25;27.45;;;6.80;86.10;;;;;;5034431;28;20527;-80
2021/12/24 08:17:59;;;;;;;36.17;23.83;;;6.80;86.00;;;;;;5033896;28;20055;-80
2021/12/24 08:20:27;;;;;;;28.50;19.80;;;6.80;86.00;;;;;;5034622;28;20056;-80
2021/12/24 08:22:56;;;;;;;26.00;19.52;;;6.80;86.00;;;;;;5034206;28;20045;-82
2021/12/24 08:25:24;;;;;;;34.47;23.15;;;6.80;86.00;;;;;;5034662;28;20617;-80
2021/12/24 08:27:52;;;;;;;27.73;19.88;;;6.80;86.00;;;;;;5034846;28;20128;-81
2021/12/24 08:30:19;;;;;;;27.48;19.15;;;6.80;86.00;;;;;;5034401;28;20051;-80
2021/12/24 08:32:46;;;;;;;31.58;20.80;;;6.80;86.00;;;;;;5033728;28;20403;-80
2021/12/24 08:35:16;;;;;;;27.55;19.77;;;6.80;86.00;;;;;;5034286;28;20049;-80
2021/12/24 08:37:44;;;;;;;34.80;21.25;;;6.80;85.90;;;;;;5033656;28;20055;-80
2021/12/24 08:40:12;;;;;;;29.73;21.65;;;6.80;85.90;;;;;;5034497;28;20051;-80
2021/12/24 08:42:39;;;;;;;32.80;21.60;;;6.80;85.90;;;;;;5066374;28;20391;-80
2021/12/24 08:45:08;;;;;;;28.90;21.67;;;6.80;85.90;;;;;;5033542;28;20049;-80
2021/12/24 08:47:35;;;;;;;30.80;22.55;;;6.80;85.90;;;;;;5033570;28;20426;-80
2021/12/24 08:50:04;;;;;;;36.22;22.77;;;6.80;85.90;;;;;;5034173;28;20072;-80
2021/12/24 08:52:32;;;;;;;32.08;21.70;;;6.80;85.90;;;;;;5033547;28;20042;-80
2021/12/24 08:54:59;;;;;;;27.60;20.77;;;6.80;85.90;;;;;;5034223;28;20052;-80
2021/12/24 08:57:26;;;;;;;32.50;22.48;;;6.80;85.80;;;;;;5018475;28;20056;-80
2021/12/24 08:59:53;;;;;;;32.53;23.15;;;6.80;85.80;;;;;;5028780;28;20049;-80
2021/12/24 09:02:21;;;;;;;35.90;23.15;;;6.80;85.80;;;;;;5033960;28;20045;-80
2021/12/24 09:04:48;;;;;;;29.92;21.48;;;6.80;85.80;;;;;;5033818;28;20041;-80
2021/12/24 09:07:15;;;;;;;41.95;23.45;;;6.90;85.90;;;;;;5033310;28;20041;-80
2021/12/24 09:09:42;;;;;;;37.75;23.92;;;6.80;85.80;;;;;;5033818;28;20049;-80
2021/12/24 09:12:09;;;;;;;34.80;23.63;;;6.90;85.90;;;;;;5033607;28;20284;-81
2021/12/24 09:14:37;;;;;;;37.40;24.75;;;6.90;85.90;;;;;;5032513;28;20421;-80
2021/12/24 09:17:04;;;;;;;32.70;22.92;;;6.90;85.90;;;;;;5033630;28;20053;-82
2021/12/24 09:19:33;;;;;;;36.60;23.75;;;6.90;85.90;;;;;;5033489;28;20107;-81
2021/12/24 09:22:00;;;;;;;37.83;24.50;;;6.90;85.90;;;;;;5033173;28;20056;-81
2021/12/24 09:24:30;;;;;;;31.73;21.98;;;6.90;85.90;;;;;;5033889;28;20044;-80
2021/12/24 09:26:58;;;;;;;33.13;24.33;;;6.90;85.90;;;;;;5028852;28;20417;-80
2021/12/24 09:29:26;;;;;;;35.08;24.80;;;6.90;85.90;;;;;;5032661;28;20041;-80
2021/12/24 09:31:54;;;;;;;35.97;23.83;;;6.90;85.90;;;;;;5033427;28;20056;-80
2021/12/24 09:34:22;;;;;;;31.33;22.17;;;6.90;85.90;;;;;;5033128;28;20041;-80
2021/12/24 09:36:49;;;;;;;33.13;23.70;;;6.90;85.90;;;;;;5032797;28;20046;-80
2021/12/24 09:39:17;;;;;;;33.40;23.23;;;7.00;86.00;;;;;;5033396;28;20053;-80
2021/12/24 09:41:44;;;;;;;37.20;25.05;;;6.90;85.90;;;;;;5032415;28;20049;-80
2021/12/24 09:44:13;;;;;;;32.90;22.58;;;7.00;85.90;;;;;;5033054;28;20045;-80
2021/12/24 09:46:42;;;;;;;31.17;23.30;;;7.00;85.90;;;;;;5032993;28;20433;-80
2021/12/24 09:49:12;;;;;;;30.60;22.65;;;7.00;85.90;;;;;;5032899;28;20179;-80
2021/12/24 09:51:44;;;;;;;33.05;23.08;;;7.00;85.90;;;;;;5032583;28;20045;-80
2021/12/24 09:54:14;;;;;;;36.22;22.70;;;7.00;85.90;;;;;;5033203;28;20434;-80
2021/12/24 09:56:42;;;;;;;33.00;22.65;;;7.00;85.90;;;;;;5030545;28;20053;-80
2021/12/24 09:59:10;;;;;;;32.78;23.52;;;7.00;85.90;;;;;;5032723;28;20041;-80
2021/12/24 10:01:43;;;;;;;38.60;25.60;;;7.00;85.90;;;;;;5032929;28;20049;-80
2021/12/24 10:04:15;;;;;;;31.60;22.67;;;7.00;85.90;;;;;;5032506;28;20081;-80
2021/12/24 10:06:52;;;;;;;32.78;22.63;;;7.00;85.90;;;;;;5032786;28;20414;-80
2021/12/24 10:09:20;;;;;;;37.10;24.60;;;7.10;85.90;;;;;;5032855;28;20055;-80
2021/12/24 10:11:52;;;;;;;42.35;26.52;;;7.00;85.90;;;;;;5032062;28;20055;-80
2021/12/24 10:14:20;;;;;;;33.72;22.38;;;7.10;85.90;;;;;;5032450;28;20315;-80
2021/12/24 10:16:50;;;;;;;34.80;23.67;;;7.10;86.00;;;;;;5032637;28;20053;-80
2021/12/24 10:19:19;;;;;;;35.65;24.02;;;7.10;86.00;;;;;;5032511;28;20057;-80
2021/12/24 10:21:59;;;;;;;31.88;22.73;;;7.10;86.00;;;;;;5032274;28;20510;-80
2021/12/24 10:24:27;;;;;;;38.80;23.23;;;7.10;86.00;;;;;;5017468;28;20037;-80
2021/12/24 10:26:57;;;;;;;41.03;25.17;;;7.20;86.00;;;;;;5028152;28;20540;-80
2021/12/24 10:29:41;;;;;;;35.40;23.77;;;7.20;86.00;;;;;;5034811;28;20049;-80
2021/12/24 10:32:21;;;;;;;68.88;32.70;;;7.20;86.00;;;;;;5032976;28;20107;-80
2021/12/24 10:34:48;;;;;;;38.53;24.95;;;7.20;86.00;;;;;;5032657;28;20045;-80
2021/12/24 10:37:22;;;;;;;44.20;26.83;;;7.20;86.10;;;;;;5032916;28;20118;-80
2021/12/24 10:39:51;;;;;;;;;;;7.30;86.10;;;;;;5033368;28;20041;-80
2021/12/24 10:42:37;;;;;;;38.42;24.95;;;7.20;86.10;;;;;;5031849;28;19929;-80
2021/12/24 10:45:15;;;;;;;38.30;24.40;;;7.30;86.20;;;;;;5029349;28;20056;-80
2021/12/24 10:47:43;;;;;;;40.63;26.70;;;7.30;86.20;;;;;;5030289;28;20046;-80
2021/12/24 10:53:15;;;;;;;44.95;27.70;;;7.30;86.20;;;;;;5032541;28;20490;-80
2021/12/24 10:55:47;;;;;;;38.40;25.83;;;7.30;86.20;;;;;;5032770;28;20045;-80
2021/12/24 10:58:23;;;;;;;41.15;26.80;;;7.30;86.20;;;;;;5033201;28;20498;-80
2021/12/24 11:00:52;;;;;;;42.40;26.25;;;7.30;86.20;;;;;;5036843;28;20046;-80
2021/12/24 11:03:24;;;;;;;39.63;25.98;;;7.40;86.20;;;;;;5036249;28;20053;-80
2021/12/24 11:06:03;;;;;;;37.17;25.42;;;7.40;86.20;;;;;;5035786;28;20049;-80
2021/12/24 11:08:30;;;;;;;40.25;24.70;;;7.40;86.20;;;;;;5036783;28;20053;-80
2021/12/24 11:11:01;;;;;;;37.05;23.98;;;7.40;86.20;;;;;;5036460;28;20512;-80
2021/12/24 11:13:42;;;;;;;35.78;23.95;;;7.40;86.10;;;;;;5036329;28;20049;-80
2021/12/24 11:16:14;;;;;;;35.97;24.58;;;7.40;86.10;;;;;;5036253;28;20049;-80
2021/12/24 11:18:46;;;;;;;40.83;26.55;;;7.50;86.10;;;;;;5036065;28;20046;-80
2021/12/24 11:21:19;;;;;;;37.33;24.98;;;7.50;86.10;;;;;;5036252;28;20081;-80
2021/12/24 11:23:47;;;;;;;44.83;26.35;;;7.50;86.10;;;;;;5035442;28;20056;-80
2021/12/24 11:26:20;;;;;;;37.33;24.77;;;7.50;86.10;;;;;;5036164;28;20056;-80
2021/12/24 11:28:48;;;;;;;37.47;25.65;;;7.50;86.00;;;;;;5036072;28;20042;-80
2021/12/24 11:31:17;;;;;;;37.40;25.70;;;7.60;86.10;;;;;;5035613;28;20048;-80
2021/12/24 11:33:46;;;;;;;38.72;25.70;;;7.60;86.10;;;;;;5036048;28;20570;-80
2021/12/24 11:36:16;;;;;;;38.05;25.38;;;7.60;86.00;;;;;;5036006;28;20055;-80
2021/12/24 11:38:47;;;;;;;34.50;24.05;;;7.60;86.00;;;;;;5035148;28;20060;-80
2021/12/24 11:41:17;;;;;;;35.67;24.27;;;7.60;86.00;;;;;;5035882;28;20041;-80
2021/12/24 11:43:46;;;;;;;37.53;24.58;;;7.70;86.00;;;;;;5035816;28;20513;-80
2021/12/24 11:46:17;;;;;;;35.95;25.17;;;7.70;86.00;;;;;;5035402;28;20045;-80
2021/12/24 11:48:48;;;;;;;36.38;25.27;;;7.70;86.00;;;;;;5035738;28;20481;-80
2021/12/24 11:51:18;;;;;;;36.53;23.60;;;7.70;86.00;;;;;;5035866;28;20177;-80
2021/12/24 11:53:47;;;;;;;38.30;24.98;;;7.70;86.00;;;;;;5034964;28;20060;-80
2021/12/24 11:56:17;;;;;;;37.78;24.77;;;7.70;85.90;;;;;;5035539;28;20044;-80
2021/12/24 11:58:50;;;;;;;35.08;24.13;;;7.80;85.90;;;;;;5035546;28;20047;-80
2021/12/24 12:01:20;;;;;;;34.70;24.75;;;7.80;85.90;;;;;;5035194;28;20064;-80
2021/12/24 12:03:52;;;;;;;32.78;23.35;;;7.80;85.90;;;;;;5035341;28;20243;-80
2021/12/24 12:06:22;;;;;;;33.45;22.50;;;7.80;85.90;;;;;;5035507;28;20078;-80
2021/12/24 12:08:57;;;;;;;37.90;24.48;;;7.80;85.80;;;;;;5034568;28;20041;-80
2021/12/24 12:11:31;;;;;;;33.88;23.38;;;7.80;85.70;;;;;;5036204;28;20498;-80
2021/12/24 12:14:04;;;;;;;33.83;23.63;;;7.80;85.70;;;;;;5035282;28;20041;-80
2021/12/24 12:16:52;;;;;;;35.03;23.23;;;7.90;85.60;;;;;;5066623;28;20048;-80
2021/12/24 12:22:25;;;;;;;37.78;23.20;;;7.90;85.60;;;;;;5035140;28;20041;-80
2021/12/24 12:24:59;;;;;;;33.47;23.17;;;7.90;85.50;;;;;;5035178;28;20045;-80
2021/12/24 12:27:39;;;;;;;32.25;22.92;;;7.90;85.50;;;;;;5019597;28;20049;-80
2021/12/24 12:30:31;;;;;;;36.20;23.60;;;7.90;85.50;;;;;;5031406;28;20045;-80
2021/12/24 12:33:13;;;;;;;35.53;23.48;;;7.90;85.40;;;;;;5030374;28;20068;-80
2021/12/24 12:35:44;;;;;;;37.80;24.83;;;7.90;85.40;;;;;;5032260;28;20050;-80
2021/12/24 12:38:31;;;;;;;32.53;23.00;;;7.90;85.40;;;;;;5034591;28;20132;-80
2021/12/24 12:41:37;;;;;;;36.72;22.92;;;7.90;85.40;;;;;;5034637;28;20048;-80
2021/12/24 12:44:15;;;;;;;35.05;23.58;;;7.90;85.40;;;;;;5034308;28;20482;-80
2021/12/24 12:46:44;;;;;;;40.13;24.85;;;7.90;85.50;;;;;;5034679;28;20060;-80
2021/12/24 12:49:17;;;;;;;34.00;22.27;;;8.00;85.50;;;;;;5034401;28;20124;-80
2021/12/24 12:51:57;;;;;;;33.10;22.00;;;8.00;85.50;;;;;;5034621;28;20136;-80
2021/12/24 12:54:40;;;;;;;34.20;22.58;;;8.00;85.40;;;;;;5034571;28;20045;-80
2021/12/24 12:57:15;;;;;;;35.17;23.60;;;8.00;85.40;;;;;;5031352;28;20059;-80
2021/12/24 13:00:07;;;;;;;33.35;22.23;;;8.00;85.40;;;;;;5031629;28;20499;-80
2021/12/24 13:02:56;;;;;;;39.45;24.55;;;8.00;85.40;;;;;;5035239;28;20438;-80
2021/12/24 13:05:29;;;;;;;37.38;24.02;;;8.00;85.40;;;;;;5035386;28;20057;-80
2021/12/24 13:08:00;;;;;;;34.10;23.55;;;8.10;85.30;;;;;;5034110;28;20502;-80
2021/12/24 13:10:28;;;;;;;35.13;24.13;;;8.10;85.40;;;;;;5034136;28;20095;-80
2021/12/24 13:13:04;;;;;;;32.67;22.52;;;8.10;85.30;;;;;;5033935;28;20043;-80
2021/12/24 13:15:53;;;;;;;34.53;22.85;;;8.10;85.30;;;;;;5019243;28;20057;-80
2021/12/24 13:18:32;;;;;;;36.65;23.58;;;8.10;85.30;;;;;;5034016;28;20057;-80
2021/12/24 13:23:36;;;;;;;34.28;23.63;;;8.20;85.30;;;;;;5033460;28;20133;-80
2021/12/24 13:26:17;;;;;;;32.17;23.08;;;8.20;85.30;;;;;;5033845;28;20045;-80
2021/12/24 13:28:58;;;;;;;33.05;22.67;;;8.20;85.30;;;;;;5033205;28;20037;-80
2021/12/24 13:31:27;;;;;;;32.92;22.27;;;8.20;85.20;;;;;;5033913;28;20041;-80
2021/12/24 13:33:54;;;;;;;33.55;22.10;;;8.20;85.20;;;;;;5033920;28;20513;-80
2021/12/24 13:36:23;;;;;;;34.92;23.90;;;8.20;85.20;;;;;;5033827;28;20056;-80
2021/12/24 13:38:51;;;;;;;34.88;24.08;;;8.20;85.10;;;;;;5032972;28;20049;-80
2021/12/24 13:41:22;;;;;;;35.22;23.85;;;8.20;85.10;;;;;;5033639;28;20056;-80
2021/12/24 13:43:49;;;;;;;32.22;22.17;;;8.30;85.10;;;;;;5033542;28;20067;-80
2021/12/24 13:46:16;;;;;;;32.53;22.05;;;8.30;85.00;;;;;;5033502;28;20045;-80
2021/12/24 13:54:33;;;;;;;32.33;21.50;;;8.30;85.00;;;;;;5009983;28;20050;-80
2021/12/24 13:57:06;;;;;;;34.70;23.48;;;8.20;84.90;;;;;;5009913;28;20477;-80
2021/12/24 13:59:34;;;;;;;32.53;21.52;;;8.30;84.90;;;;;;5011534;28;20419;-80
2021/12/24 14:02:09;;;;;;;31.75;22.05;;;8.30;84.90;;;;;;5006833;28;20886;-80
2021/12/24 14:04:36;;;;;;;32.20;21.02;;;8.20;84.90;;;;;;5006447;28;20061;-80
2021/12/24 14:07:04;;;;;;;32.25;22.02;;;8.30;84.90;;;;;;5008915;28;20046;-80
2021/12/24 14:09:33;;;;;;;34.90;23.63;;;8.30;84.90;;;;;;5010724;28;20092;-80
2021/12/24 14:12:03;;;;;;;32.22;22.83;;;8.30;84.90;;;;;;5006113;28;20045;-80
2021/12/24 14:15:05;;;;;;;32.72;22.55;;;8.30;84.80;;;;;;5011008;28;20049;-80
2021/12/24 14:18:22;;;;;;;33.95;22.35;;;8.30;84.80;;;;;;5011339;28;20549;-81
2021/12/24 14:20:59;;;;;;;34.35;22.58;;;8.30;84.80;;;;;;4999106;28;20474;-80
2021/12/24 14:23:20;;;;;;;34.17;22.60;;;8.30;84.70;;;;;;5005723;28;20042;-81
2021/12/24 14:25:58;;;;;;;31.92;22.80;;;8.30;84.80;;;;;;5006184;28;20056;-81
2021/12/24 14:28:26;;;;;;;33.38;23.02;;;8.30;84.70;;;;;;5014998;28;20048;-81
2021/12/24 14:31:05;;;;;;;35.30;23.75;;;8.30;84.70;;;;;;5032799;28;20045;-80
2021/12/24 14:33:36;;;;;;;34.83;22.70;;;8.30;84.70;;;;;;5019091;28;20081;-80
2021/12/24 14:36:04;;;;;;;32.55;21.75;;;8.30;84.70;;;;;;5036389;28;20046;-80
2021/12/24 14:38:32;;;;;;;33.95;22.75;;;8.30;84.70;;;;;;5037400;28;20433;-81
2021/12/24 14:41:00;;;;;;;36.28;23.45;;;8.40;84.70;;;;;;5036585;28;20513;-80
2021/12/24 14:43:34;;;;;;;36.13;24.13;;;8.40;84.70;;;;;;5037048;28;20506;-80
2021/12/24 14:46:07;;;;;;;36.42;23.80;;;8.40;84.80;;;;;;5036837;28;20046;-80